Historique des mesures à Cassis (13260), France
Quotidien Résumé Fevrier 16, 2018 Unités:  Métrique    US   Métrique/US
« Précédent (Jour)
Suivant (Jour) »
Quotidien Hebdomadaire Mensuel Annuel Période au choix
  Maximum: Minimum: Moyenne:
Température: TemperatureC °C 8.1 °C 11 °C
Point de rosée: DewpointC °C 5.2 °C 7.5 °C
Humidité: Humidity % 72 % 75 %
Vitesse du vent: 0 km/h 0 km/h 0.5 km/h
Rafales: 0 km/h - -
Vent:- - SE
Pression: PressurehPa hPa 1017.8 hPa -
Précipitations: 0.0 mm    
Historical Graphs
 
 
Mesures pour : Fevrier 16, 2018
Heure Temperature Point de rosée Pression Vent Vitesse du vent Rafales Humidité Pluie (par heure) Conditions
TemperatureC °C DewpointC °C PressurehPa hPa Calm     Humidity % HourlyPrecipMM mm SoftwareType W/m2
00:12 9.6 °C 5.7 °C 1019.9 hPa Calm     77 % 0.0 mm open2300-1.11 W/m2
01:12 9.1 °C 5.6 °C 1019.5 hPa Calm     79 % 0.0 mm open2300-1.11 W/m2
02:12 8.6 °C 5.3 °C 1019.5 hPa Calm     80 % 0.0 mm open2300-1.11 W/m2
03:12 9.1 °C 6.0 °C 1019.9 hPa Calm     81 % 0.0 mm open2300-1.11 W/m2
04:12 8.9 °C 5.8 °C 1019.9 hPa Calm     81 % 0.0 mm open2300-1.11 W/m2
05:12 8.6 °C 5.5 °C 1019.5 hPa Calm     81 % 0.0 mm open2300-1.11 W/m2
06:12 8.3 °C 5.4 °C 1019.5 hPa Calm     82 % 0.0 mm open2300-1.11 W/m2
07:12 8.1 °C 5.2 °C 1019.9 hPa Calm     82 % 0.0 mm open2300-1.11 W/m2
08:12 8.7 °C 5.8 °C 1019.9 hPa Calm     82 % 0.0 mm open2300-1.11 W/m2
09:12 10.5 °C 7.4 °C 1020.2 hPa Calm     81 % 0.0 mm open2300-1.11 W/m2
10:12 11.8 °C 8.1 °C 1020.5 hPa Calm     78 % 0.0 mm open2300-1.11 W/m2
11:12 12.9 °C 8.6 °C 1020.5 hPa Calm     75 % 0.0 mm open2300-1.11 W/m2
12:12 13.8 °C 9.0 °C 1020.5 hPa SE 5.1 km/h 5.1 km/h 73 % 0.0 mm open2300-1.11 W/m2
13:12 14.3 °C 9.3 °C 1019.9 hPa Calm   4.2 km/h 72 % 0.0 mm open2300-1.11 W/m2
14:12 14.4 °C 9.4 °C 1019.2 hPa ESE 6.4 km/h 6.4 km/h 72 % 0.0 mm open2300-1.11 W/m2
15:12 14.2 °C 9.6 °C 1018.5 hPa Calm   4.7 km/h 74 % 0.0 mm open2300-1.11 W/m2
16:12 14.1 °C 9.7 °C 1018.2 hPa Calm   4.2 km/h 75 % 0.0 mm open2300-1.11 W/m2
17:12 13.7 °C 9.7 °C 1017.8 hPa Calm     77 % 0.0 mm open2300-1.11 W/m2
18:12 13.1 °C 9.5 °C 1017.8 hPa Calm     79 % 0.0 mm open2300-1.11 W/m2
19:12 12.6 °C 9.2 °C 1018.5 hPa Calm     80 % 0.0 mm open2300-1.11 W/m2
20:12 12.5 °C 9.3 °C 1018.2 hPa Calm     81 % 0.0 mm open2300-1.11 W/m2
21:12 12.5 °C 9.3 °C 1018.2 hPa Calm     81 % 0.0 mm open2300-1.11 W/m2
22:12 12.6 °C 9.4 °C 1017.8 hPa Calm   2.3 km/h 81 % 0.0 mm open2300-1.11 W/m2
23:12 12.8 °C 9.4 °C 1018.2 hPa Calm     80 % 0.0 mm open2300-1.11 W/m2
Observations météo à CASSIS
WU-History script by Weather Underground - 1 mb